Time;durP1;ratioP1;P1;durP2;ratioP2;P2;SDS_P1;SDS_P2;PMS_P1;PMS_P2;Temp;Humidity;BMP_temperature;BMP_pressure;BME280_temperature;BME280_humidity;BME280_pressure;Samples;Min_cycle;Max_cycle;Signal;HPM_P1;HPM_P2
2022/02/24 00:00:31;;;;;;;1.23;1.13;;;;;;;;;;4994189;28;20262;-80
2022/02/24 00:02:58;;;;;;;1.50;1.40;;;;;;;;;;4994829;28;20206;-79
2022/02/24 00:05:25;;;;;;;1.40;1.10;;;;;;;;;;4994858;28;20203;-79
2022/02/24 00:07:53;;;;;;;1.27;1.17;;;;;;;;;;4994940;28;20211;-79
2022/02/24 00:10:22;;;;;;;2.50;1.27;;;;;;;;;;4994859;28;20227;-79
2022/02/24 00:12:50;;;;;;;1.30;1.20;;;;;;;;;;4994113;28;20207;-79
2022/02/24 00:15:17;;;;;;;1.30;1.08;;;;;;;;;;4995247;28;20974;-79
2022/02/24 00:17:45;;;;;;;1.58;1.33;;;;;;;;;;4995068;28;20360;-79
2022/02/24 00:20:13;;;;;;;1.27;1.20;;;;;;;;;;4994950;28;20690;-79
2022/02/24 00:22:40;;;;;;;3.53;1.42;;;;;;;;;;4994671;28;20227;-79
2022/02/24 00:25:09;;;;;;;1.30;1.20;;;;;;;;;;4994921;28;20207;-79
2022/02/24 00:27:37;;;;;;;1.02;1.02;;;;;;;;;;4994357;28;20735;-79
2022/02/24 00:30:07;;;;;;;1.20;1.10;;;;;;;;;;4994691;28;20224;-79
2022/02/24 00:32:34;;;;;;;1.17;1.05;;;;;;;;;;4994083;28;20258;-79
2022/02/24 00:35:01;;;;;;;2.15;1.50;;;;;;;;;;4994658;28;20234;-79
2022/02/24 00:37:29;;;;;;;2.53;1.15;;;;;;;;;;4994338;28;20208;-79
2022/02/24 00:39:56;;;;;;;1.08;1.00;;;;;;;;;;4994120;28;20286;-79
2022/02/24 00:42:23;;;;;;;1.33;1.23;;;;;;;;;;4993825;28;20199;-79
2022/02/24 00:44:52;;;;;;;1.10;1.10;;;;;;;;;;4994367;28;20266;-79
2022/02/24 00:47:19;;;;;;;1.00;1.00;;;;;;;;;;4993978;28;20230;-80
2022/02/24 00:49:46;;;;;;;1.45;1.30;;;;;;;;;;4993801;28;20716;-79
2022/02/24 00:52:14;;;;;;;2.35;1.77;;;;;;;;;;4993896;28;20227;-79
2022/02/24 00:54:41;;;;;;;0.90;0.90;;;;;;;;;;4993996;28;20208;-79
2022/02/24 00:57:09;;;;;;;1.10;1.10;;;;;;;;;;4993999;28;20674;-79
2022/02/24 00:59:36;;;;;;;1.42;1.25;;;;;;;;;;4993585;28;20258;-79
2022/02/24 01:02:05;;;;;;;1.20;1.10;;;;;;;;;;4993689;28;20215;-79
2022/02/24 01:04:32;;;;;;;1.40;1.02;;;;;;;;;;4993479;28;20211;-79
2022/02/24 01:06:59;;;;;;;3.47;1.83;;;;;;;;;;4993422;28;20265;-79
2022/02/24 01:09:27;;;;;;;1.67;1.58;;;;;;;;;;4993678;28;20223;-79
2022/02/24 01:11:54;;;;;;;2.60;2.15;;;;;;;;;;4993463;28;20203;-79
2022/02/24 01:14:21;;;;;;;2.05;1.88;;;;;;;;;;4993857;28;20213;-79
2022/02/24 01:16:48;;;;;;;2.65;2.22;;;;;;;;;;4993428;28;20227;-79
2022/02/24 01:19:17;;;;;;;4.65;3.17;;;;;;;;;;4993252;28;20281;-79
2022/02/24 01:21:44;;;;;;;2.50;2.30;;;;;;;;;;4993308;28;20204;-79
2022/02/24 01:24:12;;;;;;;5.18;3.08;;;;;;;;;;4992858;28;20331;-79
2022/02/24 01:26:39;;;;;;;3.28;2.83;;;;;;;;;;4993831;28;20200;-79
2022/02/24 01:29:06;;;;;;;4.22;2.55;;;;;;;;;;4993703;28;20297;-79
2022/02/24 01:31:34;;;;;;;3.58;2.03;;;;;;;;;;4993586;28;20207;-79
2022/02/24 01:34:01;;;;;;;2.50;2.03;;;;;;;;;;4993478;28;20294;-79
2022/02/24 01:36:30;;;;;;;2.35;1.70;;;;;;;;;;4993507;28;20293;-79
2022/02/24 01:38:57;;;;;;;1.40;1.30;;;;;;;;;;4993274;28;20227;-79
2022/02/24 01:41:24;;;;;;;1.70;1.60;;;;;;;;;;4993502;28;20669;-79
2022/02/24 01:43:52;;;;;;;1.45;1.30;;;;;;;;;;4992995;28;20204;-79
2022/02/24 01:46:19;;;;;;;1.30;1.20;;;;;;;;;;4992951;28;20200;-79
2022/02/24 01:48:47;;;;;;;1.48;1.38;;;;;;;;;;4993227;28;20215;-79
2022/02/24 01:51:15;;;;;;;1.40;1.30;;;;;;;;;;4993675;28;20226;-79
2022/02/24 01:53:43;;;;;;;1.23;1.20;;;;;;;;;;4993372;28;20211;-79
2022/02/24 01:56:12;;;;;;;2.25;1.83;;;;;;;;;;4993554;28;20786;-79
2022/02/24 01:58:39;;;;;;;2.55;1.40;;;;;;;;;;4993212;28;20258;-79
2022/02/24 02:01:06;;;;;;;3.70;2.13;;;;;;;;;;4992757;28;20235;-79
2022/02/24 02:03:34;;;;;;;2.17;1.75;;;;;;;;;;4993381;28;20203;-79
2022/02/24 02:06:01;;;;;;;2.25;1.50;;;;;;;;;;4993254;28;20208;-79
2022/02/24 02:08:29;;;;;;;1.85;1.05;;;;;;;;;;4992881;28;20204;-79
2022/02/24 02:10:57;;;;;;;1.75;1.65;;;;;;;;;;4993530;28;20247;-79
2022/02/24 02:13:25;;;;;;;1.42;1.33;;;;;;;;;;4992842;28;20672;-79
2022/02/24 02:15:53;;;;;;;1.35;1.27;;;;;;;;;;4993564;28;20208;-79
2022/02/24 02:18:21;;;;;;;1.30;1.20;;;;;;;;;;4993111;28;20196;-79
2022/02/24 02:20:51;;;;;;;1.00;0.98;;;;;;;;;;4993286;28;20290;-79
2022/02/24 02:23:18;;;;;;;1.48;1.30;;;;;;;;;;4992766;28;20204;-79
2022/02/24 02:25:46;;;;;;;1.00;1.00;;;;;;;;;;4993364;28;20274;-79
2022/02/24 02:28:15;;;;;;;2.22;1.58;;;;;;;;;;4993524;28;20200;-79
2022/02/24 02:30:42;;;;;;;1.20;1.10;;;;;;;;;;4993144;28;20231;-80
2022/02/24 02:33:09;;;;;;;1.70;1.40;;;;;;;;;;4992982;28;20211;-79
2022/02/24 02:35:37;;;;;;;2.17;1.98;;;;;;;;;;4993365;28;20287;-79
2022/02/24 02:38:06;;;;;;;1.80;1.20;;;;;;;;;;4996525;28;20782;-79
2022/02/24 02:40:37;;;;;;;0.80;0.80;;;;;;;;;;4996278;28;20235;-79
2022/02/24 02:43:06;;;;;;;0.93;0.90;;;;;;;;;;4996172;28;20286;-79
2022/02/24 02:45:33;;;;;;;1.02;1.02;;;;;;;;;;4996540;28;20235;-79
2022/02/24 02:48:01;;;;;;;1.85;1.27;;;;;;;;;;4996584;28;20200;-79
2022/02/24 02:50:28;;;;;;;2.22;1.10;;;;;;;;;;4996204;28;20223;-79
2022/02/24 02:52:56;;;;;;;1.42;0.98;;;;;;;;;;4996014;28;20266;-79
2022/02/24 02:55:24;;;;;;;1.48;1.30;;;;;;;;;;4996129;28;20266;-79
2022/02/24 02:57:52;;;;;;;1.00;1.00;;;;;;;;;;4996035;28;20227;-79
2022/02/24 03:00:19;;;;;;;1.30;1.20;;;;;;;;;;4995965;28;20247;-79
2022/02/24 03:02:47;;;;;;;1.50;1.40;;;;;;;;;;4996139;28;20649;-79
2022/02/24 03:05:14;;;;;;;1.40;1.30;;;;;;;;;;4996024;28;20208;-79
2022/02/24 03:07:41;;;;;;;2.40;1.58;;;;;;;;;;4995854;28;20200;-79
2022/02/24 03:10:10;;;;;;;1.40;1.30;;;;;;;;;;4995647;28;20227;-79
2022/02/24 03:12:39;;;;;;;1.13;1.00;;;;;;;;;;4995833;28;20647;-79
2022/02/24 03:15:08;;;;;;;1.25;1.15;;;;;;;;;;4995943;28;20203;-79
2022/02/24 03:17:36;;;;;;;1.27;1.17;;;;;;;;;;4995671;28;20228;-79
2022/02/24 03:20:04;;;;;;;2.28;1.33;;;;;;;;;;4995691;28;20223;-80
2022/02/24 03:22:32;;;;;;;2.30;1.27;;;;;;;;;;4995245;28;20203;-79
2022/02/24 03:24:59;;;;;;;1.40;1.20;;;;;;;;;;4995526;28;20208;-79
2022/02/24 03:27:26;;;;;;;1.60;1.30;;;;;;;;;;4995139;28;20262;-79
2022/02/24 03:29:55;;;;;;;1.85;1.50;;;;;;;;;;4995805;28;20223;-79
2022/02/24 03:32:22;;;;;;;1.80;1.13;;;;;;;;;;4994796;28;20258;-79
2022/02/24 03:34:49;;;;;;;3.00;1.30;;;;;;;;;;4995232;28;20203;-79
2022/02/24 03:37:17;;;;;;;1.15;1.10;;;;;;;;;;4995245;28;20223;-79
2022/02/24 03:39:44;;;;;;;1.20;1.10;;;;;;;;;;4994633;28;20227;-79
2022/02/24 03:42:12;;;;;;;1.10;1.00;;;;;;;;;;4995140;28;20199;-79
2022/02/24 03:44:39;;;;;;;2.28;1.27;;;;;;;;;;4995674;28;20204;-79
2022/02/24 03:47:08;;;;;;;1.05;1.05;;;;;;;;;;4994792;28;20203;-79
2022/02/24 03:49:35;;;;;;;2.00;1.00;;;;;;;;;;4995206;28;20230;-79
2022/02/24 03:52:02;;;;;;;1.10;1.10;;;;;;;;;;4994734;28;20203;-79
2022/02/24 03:54:30;;;;;;;1.40;1.30;;;;;;;;;;4994727;28;20238;-79
2022/02/24 03:56:57;;;;;;;3.00;1.40;;;;;;;;;;4994960;28;20750;-79
2022/02/24 03:59:25;;;;;;;1.83;1.50;;;;;;;;;;4995075;28;20239;-79
2022/02/24 04:01:52;;;;;;;1.98;1.48;;;;;;;;;;4994664;28;20247;-79
2022/02/24 04:04:21;;;;;;;2.13;1.50;;;;;;;;;;5035156;23;20276;-81
2022/02/24 04:06:48;;;;;;;1.55;1.45;;;;;;;;;;5035346;28;20253;-80
2022/02/24 04:09:15;;;;;;;2.85;1.35;;;;;;;;;;5035145;28;20206;-80
2022/02/24 04:11:42;;;;;;;1.38;1.27;;;;;;;;;;5034517;28;20248;-81
2022/02/24 04:14:10;;;;;;;1.40;1.30;;;;;;;;;;5035035;28;20219;-80
2022/02/24 04:16:37;;;;;;;1.35;1.25;;;;;;;;;;5035435;28;20229;-81
2022/02/24 04:19:04;;;;;;;1.73;1.02;;;;;;;;;;5034327;28;20229;-81
2022/02/24 04:21:35;;;;;;;1.25;1.20;;;;;;;;;;5034536;28;20206;-80
2022/02/24 04:24:02;;;;;;;1.30;1.20;;;;;;;;;;5035006;28;20226;-80
2022/02/24 04:26:29;;;;;;;1.58;1.42;;;;;;;;;;5034200;28;20202;-81
2022/02/24 04:28:57;;;;;;;2.72;1.42;;;;;;;;;;5034494;28;20206;-81
2022/02/24 04:31:24;;;;;;;1.40;1.23;;;;;;;;;;5033960;28;20280;-81
2022/02/24 04:33:51;;;;;;;1.45;1.27;;;;;;;;;;5033500;28;20215;-80
2022/02/24 04:36:19;;;;;;;0.95;0.95;;;;;;;;;;5034093;28;20666;-81
2022/02/24 04:38:47;;;;;;;1.10;1.10;;;;;;;;;;5034350;28;20581;-81
2022/02/24 04:41:15;;;;;;;2.08;1.52;;;;;;;;;;5033592;28;20210;-82
2022/02/24 04:43:42;;;;;;;1.50;1.40;;;;;;;;;;5034234;28;20221;-80
2022/02/24 04:46:09;;;;;;;1.30;1.20;;;;;;;;;;5033800;28;20206;-80
2022/02/24 04:48:37;;;;;;;1.08;1.00;;;;;;;;;;5033668;28;20210;-81
2022/02/24 04:51:06;;;;;;;1.83;1.38;;;;;;;;;;5033991;28;20213;-80
2022/02/24 04:53:33;;;;;;;1.20;1.10;;;;;;;;;;5033386;28;20233;-81
2022/02/24 04:56:02;;;;;;;1.50;1.23;;;;;;;;;;5033587;28;20206;-80
2022/02/24 04:58:29;;;;;;;1.35;1.25;;;;;;;;;;5032434;28;20273;-81
2022/02/24 05:00:57;;;;;;;1.50;1.10;;;;;;;;;;5033599;28;20267;-80
2022/02/24 05:03:24;;;;;;;1.20;1.10;;;;;;;;;;5032914;28;20221;-82
2022/02/24 05:05:51;;;;;;;1.38;1.27;;;;;;;;;;5033822;28;20679;-81
2022/02/24 05:08:18;;;;;;;2.65;1.58;;;;;;;;;;5033732;28;20206;-80
2022/02/24 05:10:45;;;;;;;1.80;1.70;;;;;;;;;;5033454;28;20207;-80
2022/02/24 05:13:14;;;;;;;1.42;1.33;;;;;;;;;;5033043;28;20651;-81
2022/02/24 05:15:42;;;;;;;1.45;1.35;;;;;;;;;;5033065;28;20225;-81
2022/02/24 05:18:09;;;;;;;3.90;2.28;;;;;;;;;;5032863;28;20265;-82
2022/02/24 05:20:37;;;;;;;1.92;1.50;;;;;;;;;;5033718;28;20209;-81
2022/02/24 05:23:04;;;;;;;1.38;1.27;;;;;;;;;;5032842;28;20206;-82
2022/02/24 05:25:34;;;;;;;1.60;1.50;;;;;;;;;;5033017;28;20288;-80
2022/02/24 05:28:06;;;;;;;2.72;2.10;;;;;;;;;;5033419;28;20201;-81
2022/02/24 05:30:35;;;;;;;1.58;1.40;;;;;;;;;;5033570;28;20242;-81
2022/02/24 05:33:03;;;;;;;1.60;1.27;;;;;;;;;;5033162;28;20209;-81
2022/02/24 05:35:30;;;;;;;3.47;2.17;;;;;;;;;;5033069;28;20226;-81
2022/02/24 05:37:57;;;;;;;2.17;1.90;;;;;;;;;;5032938;28;20207;-81
2022/02/24 05:40:25;;;;;;;3.35;1.58;;;;;;;;;;5033347;28;20213;-81
2022/02/24 05:42:52;;;;;;;2.22;1.73;;;;;;;;;;5032747;28;20206;-81
2022/02/24 05:45:19;;;;;;;2.22;1.40;;;;;;;;;;5033082;28;20218;-81
2022/02/24 05:47:48;;;;;;;1.58;1.42;;;;;;;;;;5039736;28;20210;-83
2022/02/24 05:50:15;;;;;;;2.63;2.08;;;;;;;;;;5039606;28;20256;-83
2022/02/24 05:52:43;;;;;;;4.57;1.98;;;;;;;;;;5039678;28;20203;-82
2022/02/24 05:55:10;;;;;;;4.97;1.67;;;;;;;;;;5039807;28;20713;-84
2022/02/24 05:57:38;;;;;;;1.60;1.50;;;;;;;;;;5040289;28;20729;-84
2022/02/24 06:00:07;;;;;;;2.13;1.70;;;;;;;;;;5040228;28;20604;-84
2022/02/24 06:02:34;;;;;;;2.88;1.80;;;;;;;;;;5038915;28;20217;-84
2022/02/24 06:05:03;;;;;;;3.42;2.15;;;;;;;;;;5038561;28;20607;-84
2022/02/24 06:07:30;;;;;;;4.95;2.30;;;;;;;;;;5038605;28;20210;-82
2022/02/24 06:09:58;;;;;;;2.17;1.73;;;;;;;;;;5041499;28;20227;-84
2022/02/24 06:12:25;;;;;;;2.15;1.98;;;;;;;;;;5043687;28;20210;-83
2022/02/24 06:14:53;;;;;;;1.88;1.77;;;;;;;;;;5043019;28;20222;-82
2022/02/24 06:17:20;;;;;;;3.58;2.75;;;;;;;;;;5048699;28;20202;-84
2022/02/24 06:19:47;;;;;;;4.60;3.17;;;;;;;;;;5047335;28;20690;-83
2022/02/24 06:22:16;;;;;;;4.18;2.97;;;;;;;;;;5042552;28;20225;-84
2022/02/24 06:24:43;;;;;;;3.10;2.30;;;;;;;;;;5042715;28;20230;-84
2022/02/24 06:27:11;;;;;;;2.80;2.42;;;;;;;;;;5043107;28;20217;-85
2022/02/24 06:29:38;;;;;;;2.67;1.92;;;;;;;;;;5042979;28;20205;-85
2022/02/24 06:32:06;;;;;;;3.15;2.80;;;;;;;;;;5043293;28;20693;-84
2022/02/24 06:34:34;;;;;;;4.30;2.15;;;;;;;;;;5043045;28;20234;-84
2022/02/24 06:37:01;;;;;;;2.95;1.90;;;;;;;;;;5043217;28;20256;-83
2022/02/24 06:39:29;;;;;;;3.40;2.78;;;;;;;;;;5043449;28;20233;-84
2022/02/24 06:41:57;;;;;;;2.92;2.72;;;;;;;;;;5043563;28;20202;-85
2022/02/24 06:44:24;;;;;;;4.03;2.28;;;;;;;;;;5049186;28;20230;-83
2022/02/24 06:46:51;;;;;;;2.63;1.98;;;;;;;;;;5058674;28;20229;-84
2022/02/24 06:49:19;;;;;;;3.63;2.50;;;;;;;;;;5056511;28;20206;-85
2022/02/24 06:51:46;;;;;;;4.00;2.60;;;;;;;;;;5050854;28;20210;-86
2022/02/24 06:54:13;;;;;;;2.30;1.80;;;;;;;;;;5051448;28;20603;-85
2022/02/24 06:56:42;;;;;;;1.85;1.75;;;;;;;;;;5049121;28;20206;-84
2022/02/24 06:59:09;;;;;;;2.03;1.90;;;;;;;;;;5048056;28;20226;-84
2022/02/24 07:01:37;;;;;;;4.88;2.20;;;;;;;;;;5047801;28;20710;-86
2022/02/24 07:04:04;;;;;;;2.40;1.65;;;;;;;;;;5047631;28;20230;-85
2022/02/24 07:06:32;;;;;;;2.38;2.00;;;;;;;;;;5045221;28;20222;-82
2022/02/24 07:08:59;;;;;;;2.72;2.00;;;;;;;;;;5043290;28;20624;-85
2022/02/24 07:11:26;;;;;;;1.60;1.50;;;;;;;;;;5043220;28;20198;-83
2022/02/24 07:13:55;;;;;;;1.75;1.65;;;;;;;;;;5043367;28;20720;-85
2022/02/24 07:16:22;;;;;;;1.80;1.70;;;;;;;;;;5043094;28;20210;-86
2022/02/24 07:18:50;;;;;;;3.13;1.90;;;;;;;;;;5046663;28;20210;-85
2022/02/24 07:21:17;;;;;;;1.88;1.40;;;;;;;;;;5046951;28;20214;-83
2022/02/24 07:23:44;;;;;;;1.80;1.65;;;;;;;;;;5049379;28;20226;-84
2022/02/24 07:26:12;;;;;;;1.77;1.50;;;;;;;;;;5046119;28;20206;-85
2022/02/24 07:28:43;;;;;;;2.25;1.75;;;;;;;;;;5044664;28;20209;-85
2022/02/24 07:31:13;;;;;;;3.63;1.88;;;;;;;;;;5041076;28;20242;-86
2022/02/24 07:33:40;;;;;;;2.58;1.85;;;;;;;;;;5039996;28;20710;-84
2022/02/24 07:36:08;;;;;;;3.33;2.00;;;;;;;;;;5039221;28;20202;-85
2022/02/24 07:38:35;;;;;;;2.85;1.73;;;;;;;;;;5039884;28;20207;-84
2022/02/24 07:41:02;;;;;;;1.65;1.50;;;;;;;;;;5039521;28;20624;-85
2022/02/24 07:43:31;;;;;;;3.35;1.90;;;;;;;;;;5040154;28;20206;-85
2022/02/24 07:45:58;;;;;;;1.52;1.42;;;;;;;;;;5040633;28;20265;-86
2022/02/24 07:48:27;;;;;;;2.70;1.77;;;;;;;;;;5040126;28;20620;-86
2022/02/24 07:50:55;;;;;;;2.63;2.15;;;;;;;;;;5040352;28;20202;-85
2022/02/24 07:53:24;;;;;;;1.88;1.52;;;;;;;;;;5041384;28;20206;-84
2022/02/24 07:55:51;;;;;;;3.08;2.28;;;;;;;;;;5039290;28;20210;-86
2022/02/24 07:58:19;;;;;;;1.50;1.30;;;;;;;;;;5039594;28;20218;-85
2022/02/24 08:00:46;;;;;;;1.55;1.45;;;;;;;;;;5039732;28;20230;-86
2022/02/24 08:03:13;;;;;;;4.85;2.40;;;;;;;;;;5037894;28;20207;-84
2022/02/24 08:05:42;;;;;;;2.95;1.77;;;;;;;;;;5038606;28;20206;-86
2022/02/24 08:08:09;;;;;;;6.93;2.67;;;;;;;;;;5039879;28;20198;-85
2022/02/24 08:10:37;;;;;;;1.60;1.50;;;;;;;;;;5039526;28;20202;-84
2022/02/24 08:13:04;;;;;;;3.25;1.90;;;;;;;;;;5039250;28;20206;-86
2022/02/24 08:15:32;;;;;;;1.23;1.17;;;;;;;;;;5040367;28;20230;-86
2022/02/24 08:17:59;;;;;;;2.35;1.60;;;;;;;;;;5040180;28;20206;-85
2022/02/24 08:20:27;;;;;;;2.08;1.77;;;;;;;;;;5038466;28;20230;-85
2022/02/24 08:22:58;;;;;;;4.20;2.50;;;;;;;;;;5038250;28;20217;-85
2022/02/24 08:25:25;;;;;;;1.23;1.10;;;;;;;;;;5040631;28;20222;-86
2022/02/24 08:27:54;;;;;;;2.17;1.70;;;;;;;;;;5041202;28;20206;-86
2022/02/24 08:30:22;;;;;;;2.53;2.25;;;;;;;;;;5039612;28;20209;-86
2022/02/24 08:32:50;;;;;;;2.05;1.85;;;;;;;;;;5040018;28;20665;-86
2022/02/24 08:35:19;;;;;;;3.40;2.17;;;;;;;;;;5038694;28;20718;-85
2022/02/24 08:37:48;;;;;;;2.28;2.05;;;;;;;;;;5038963;28;20624;-86
2022/02/24 08:40:19;;;;;;;2.00;1.90;;;;;;;;;;5039371;28;20702;-87
2022/02/24 08:42:46;;;;;;;1.48;1.30;;;;;;;;;;5039585;28;20249;-87
2022/02/24 08:45:14;;;;;;;1.77;1.67;;;;;;;;;;5039383;28;20218;-86
2022/02/24 08:47:42;;;;;;;2.42;2.10;;;;;;;;;;5040491;28;20207;-88
2022/02/24 08:50:12;;;;;;;3.20;2.25;;;;;;;;;;5039512;28;20209;-87
2022/02/24 08:52:39;;;;;;;3.47;1.55;;;;;;;;;;5039054;28;20198;-87
2022/02/24 08:55:07;;;;;;;4.03;2.28;;;;;;;;;;5040822;28;20280;-86
2022/02/24 08:57:35;;;;;;;2.35;2.13;;;;;;;;;;5042216;28;20693;-85
2022/02/24 09:00:03;;;;;;;2.17;2.03;;;;;;;;;;5039477;28;20245;-84
2022/02/24 09:02:31;;;;;;;4.45;2.88;;;;;;;;;;5040005;28;20608;-85
2022/02/24 09:05:00;;;;;;;1.70;1.60;;;;;;;;;;5041376;28;20298;-87
2022/02/24 09:07:28;;;;;;;2.40;2.20;;;;;;;;;;5039495;28;20210;-86
2022/02/24 09:09:55;;;;;;;2.20;1.70;;;;;;;;;;5041565;28;20678;-87
2022/02/24 09:12:23;;;;;;;1.95;1.70;;;;;;;;;;5042455;28;20669;-86
2022/02/24 09:14:52;;;;;;;2.72;2.03;;;;;;;;;;5042869;28;20229;-87
2022/02/24 09:17:20;;;;;;;3.22;1.65;;;;;;;;;;5044513;28;20209;-85
2022/02/24 09:19:47;;;;;;;3.10;2.00;;;;;;;;;;5041025;28;20213;-85
2022/02/24 09:22:14;;;;;;;3.30;2.00;;;;;;;;;;5041900;28;20230;-86
2022/02/24 09:24:42;;;;;;;2.03;1.83;;;;;;;;;;5039203;28;20675;-85
2022/02/24 09:27:10;;;;;;;3.95;2.55;;;;;;;;;;5040060;28;20216;-85
2022/02/24 09:29:39;;;;;;;3.80;1.83;;;;;;;;;;5040524;28;20210;-88
2022/02/24 09:32:08;;;;;;;3.25;2.20;;;;;;;;;;5037467;28;20234;-86
2022/02/24 09:34:37;;;;;;;4.50;2.35;;;;;;;;;;5041614;28;20237;-87
2022/02/24 09:37:05;;;;;;;2.72;2.05;;;;;;;;;;5039790;28;20202;-85
2022/02/24 09:39:32;;;;;;;2.42;2.17;;;;;;;;;;5038334;28;20206;-86
2022/02/24 09:41:59;;;;;;;3.13;2.05;;;;;;;;;;5041190;28;20237;-87
2022/02/24 09:44:27;;;;;;;3.72;1.90;;;;;;;;;;5040987;28;20230;-87
2022/02/24 09:46:54;;;;;;;2.88;2.17;;;;;;;;;;5045199;28;20216;-85
2022/02/24 09:49:24;;;;;;;2.95;2.33;;;;;;;;;;5046291;28;20608;-86
2022/02/24 09:51:51;;;;;;;2.75;2.55;;;;;;;;;;5046907;28;20211;-86
2022/02/24 09:54:19;;;;;;;1.80;1.70;;;;;;;;;;5041973;28;20231;-87
2022/02/24 09:56:47;;;;;;;3.22;2.10;;;;;;;;;;5043972;28;20202;-87
2022/02/24 09:59:14;;;;;;;1.90;1.80;;;;;;;;;;5043974;28;20210;-85
2022/02/24 10:01:45;;;;;;;4.43;2.13;;;;;;;;;;5047627;28;20312;-86
2022/02/24 10:04:12;;;;;;;3.15;2.55;;;;;;;;;;5060808;22;20801;-81
2022/02/24 10:06:43;;;;;;;2.33;1.70;;;;;;;;;;5029547;28;20210;-83
2022/02/24 10:09:12;;;;;;;4.60;2.45;;;;;;;;;;5031350;28;20253;-82
2022/02/24 10:11:40;;;;;;;2.20;1.73;;;;;;;;;;5036362;28;20214;-82
2022/02/24 10:14:09;;;;;;;1.67;1.48;;;;;;;;;;5035108;28;20303;-83
2022/02/24 10:16:54;;;;;;;2.03;1.83;;;;;;;;;;5035578;28;20347;-82
2022/02/24 10:19:29;;;;;;;1.73;1.50;;;;;;;;;;5036014;28;20587;-82
2022/02/24 10:22:13;;;;;;;1.85;1.60;;;;;;;;;;5037785;28;20229;-83
2022/02/24 10:24:42;;;;;;;1.50;1.40;;;;;;;;;;5039466;28;20609;-83
2022/02/24 10:27:25;;;;;;;2.08;1.60;;;;;;;;;;5039779;28;20214;-84
2022/02/24 10:30:13;;;;;;;1.60;1.50;;;;;;;;;;5039883;28;20207;-82
2022/02/24 10:32:43;;;;;;;1.55;1.45;;;;;;;;;;5041161;28;20194;-84
2022/02/24 10:35:22;;;;;;;1.60;1.50;;;;;;;;;;5040476;28;20698;-82
2022/02/24 10:37:57;;;;;;;2.28;1.25;;;;;;;;;;5038228;28;20217;-85
2022/02/24 10:40:26;;;;;;;1.80;1.60;;;;;;;;;;5039048;28;20209;-83
2022/02/24 10:42:53;;;;;;;1.55;1.33;;;;;;;;;;5038112;28;20612;-82
2022/02/24 10:45:26;;;;;;;3.45;1.80;;;;;;;;;;5038192;28;20277;-84
2022/02/24 10:47:58;;;;;;;1.80;1.70;;;;;;;;;;5038368;28;20584;-83
2022/02/24 10:50:49;;;;;;;1.55;1.38;;;;;;;;;;5038354;28;20681;-83
2022/02/24 10:53:20;;;;;;;4.15;1.80;;;;;;;;;;5038858;28;20575;-84
2022/02/24 10:56:07;;;;;;;2.63;1.55;;;;;;;;;;5038483;28;20599;-83
2022/02/24 10:58:37;;;;;;;1.48;1.38;;;;;;;;;;5038143;28;20662;-83
2022/02/24 11:01:17;;;;;;;2.50;2.30;;;;;;;;;;5033926;28;20214;-83
2022/02/24 11:03:47;;;;;;;2.67;2.10;;;;;;;;;;5037711;28;20272;-82
2022/02/24 11:06:15;;;;;;;5.90;2.03;;;;;;;;;;5038210;28;20214;-82
2022/02/24 11:08:45;;;;;;;3.17;2.22;;;;;;;;;;5037514;28;20214;-81
2022/02/24 11:11:19;;;;;;;2.92;2.05;;;;;;;;;;5038217;28;20194;-82
2022/02/24 11:13:47;;;;;;;2.05;1.75;;;;;;;;;;5038879;28;20209;-83
2022/02/24 11:16:15;;;;;;;2.53;1.92;;;;;;;;;;5038778;28;20214;-83
2022/02/24 11:18:43;;;;;;;3.25;2.35;;;;;;;;;;5039058;28;20205;-83
2022/02/24 11:21:12;;;;;;;2.40;2.20;;;;;;;;;;5037605;28;20205;-83
2022/02/24 11:23:40;;;;;;;2.53;2.30;;;;;;;;;;5037945;28;20198;-84
2022/02/24 11:26:39;;;;;;;4.25;2.17;;;;;;;;;;5037368;28;20203;-86
2022/02/24 11:29:24;;;;;;;5.07;2.25;;;;;;;;;;5030318;28;20749;-86
2022/02/24 11:32:03;;;;;;;3.13;2.20;;;;;;;;;;5035971;28;20204;-85
2022/02/24 11:35:06;;;;;;;2.92;1.70;;;;;;;;;;5029692;28;20222;-84
2022/02/24 11:37:35;;;;;;;2.88;2.00;;;;;;;;;;4994470;28;20263;-84
2022/02/24 11:40:07;;;;;;;2.53;2.00;;;;;;;;;;5037462;28;20601;-84
2022/02/24 11:42:38;;;;;;;3.17;2.00;;;;;;;;;;5035669;28;20581;-85
2022/02/24 11:45:35;;;;;;;3.08;2.80;;;;;;;;;;5036396;28;20227;-85
2022/02/24 11:48:05;;;;;;;3.63;2.00;;;;;;;;;;5035570;28;20214;-84
2022/02/24 11:50:36;;;;;;;6.07;2.60;;;;;;;;;;5036299;28;20206;-85
2022/02/24 11:53:06;;;;;;;2.53;1.83;;;;;;;;;;5035264;28;20207;-86
2022/02/24 11:55:54;;;;;;;2.15;1.88;;;;;;;;;;5035783;28;20785;-87
2022/02/24 11:58:53;;;;;;;2.22;1.70;;;;;;;;;;5035347;28;20576;-86
2022/02/24 12:01:39;;;;;;;2.10;1.92;;;;;;;;;;5031828;28;20219;-85
2022/02/24 12:04:22;;;;;;;2.35;1.95;;;;;;;;;;5036136;28;20280;-85
2022/02/24 12:06:53;;;;;;;4.30;2.42;;;;;;;;;;5037986;28;20309;-84
2022/02/24 12:09:24;;;;;;;2.40;2.22;;;;;;;;;;5036039;28;20203;-85
2022/02/24 12:11:54;;;;;;;2.22;2.05;;;;;;;;;;5037369;28;20666;-84
2022/02/24 12:14:52;;;;;;;2.17;1.98;;;;;;;;;;5036968;28;20234;-84
2022/02/24 12:17:26;;;;;;;3.50;2.30;;;;;;;;;;5036784;28;20206;-85
2022/02/24 12:19:58;;;;;;;4.38;2.28;;;;;;;;;;5034954;28;20682;-87
2022/02/24 12:22:35;;;;;;;2.78;1.77;;;;;;;;;;5033739;28;20231;-85
2022/02/24 12:25:15;;;;;;;2.42;2.17;;;;;;;;;;5034063;28;20237;-85
2022/02/24 12:27:47;;;;;;;3.30;2.20;;;;;;;;;;5033319;28;20206;-86
2022/02/24 12:30:31;;;;;;;2.60;2.08;;;;;;;;;;5033375;28;20264;-85
2022/02/24 12:33:02;;;;;;;2.72;2.47;;;;;;;;;;5028531;28;20198;-87
2022/02/24 12:35:33;;;;;;;2.10;2.00;;;;;;;;;;5033272;28;20273;-85
2022/02/24 12:38:03;;;;;;;1.90;1.80;;;;;;;;;;5033235;28;20202;-87
2022/02/24 12:40:33;;;;;;;2.13;1.92;;;;;;;;;;5033517;28;20585;-87
2022/02/24 12:43:02;;;;;;;5.15;3.00;;;;;;;;;;5032959;28;20230;-86
2022/02/24 12:45:32;;;;;;;2.47;2.25;;;;;;;;;;5032684;28;20234;-86
2022/02/24 12:48:02;;;;;;;2.17;1.98;;;;;;;;;;5033258;28;20214;-85
2022/02/24 12:50:36;;;;;;;2.10;1.90;;;;;;;;;;5033769;28;20214;-86
2022/02/24 12:53:12;;;;;;;2.13;1.67;;;;;;;;;;5032829;28;20646;-85
2022/02/24 12:55:40;;;;;;;1.77;1.67;;;;;;;;;;5033223;28;20613;-85
2022/02/24 12:58:09;;;;;;;2.28;2.08;;;;;;;;;;5033531;28;20198;-85
2022/02/24 13:00:40;;;;;;;3.17;1.88;;;;;;;;;;5033602;28;20206;-85
2022/02/24 13:03:08;;;;;;;2.72;2.35;;;;;;;;;;5032688;28;20226;-86
2022/02/24 13:05:46;;;;;;;2.30;1.65;;;;;;;;;;5026115;28;20241;-85
2022/02/24 13:11:04;;;;;;;2.53;2.33;;;;;;;;;;5001278;28;20716;-87
2022/02/24 13:13:31;;;;;;;4.28;2.40;;;;;;;;;;5032372;28;20214;-86
2022/02/24 13:16:01;;;;;;;2.15;1.95;;;;;;;;;;5032793;28;20233;-86
2022/02/24 13:18:29;;;;;;;2.70;2.50;;;;;;;;;;5033637;28;20205;-85
2022/02/24 13:21:01;;;;;;;2.05;1.80;;;;;;;;;;5032064;28;20210;-85
2022/02/24 13:23:29;;;;;;;3.90;2.38;;;;;;;;;;5031392;28;20233;-86
2022/02/24 13:25:57;;;;;;;2.53;1.77;;;;;;;;;;5032695;28;20311;-86
2022/02/24 13:28:26;;;;;;;2.42;2.22;;;;;;;;;;5032540;28;20217;-86
2022/02/24 13:30:56;;;;;;;2.05;1.95;;;;;;;;;;5032598;28;20209;-85
2022/02/24 13:33:30;;;;;;;3.03;1.85;;;;;;;;;;5032527;28;20202;-85
2022/02/24 13:35:58;;;;;;;2.60;1.92;;;;;;;;;;5026349;28;20258;-85
2022/02/24 13:38:35;;;;;;;2.03;1.75;;;;;;;;;;5025911;28;20210;-84
2022/02/24 13:41:03;;;;;;;2.10;2.00;;;;;;;;;;5033532;28;20675;-84
2022/02/24 13:43:30;;;;;;;3.00;2.70;;;;;;;;;;5032633;28;20226;-84
2022/02/24 13:45:58;;;;;;;2.20;2.00;;;;;;;;;;5033090;28;20226;-85
2022/02/24 13:48:26;;;;;;;4.25;2.20;;;;;;;;;;5034300;28;20217;-84
2022/02/24 13:50:56;;;;;;;2.90;1.77;;;;;;;;;;5035354;28;20233;-84
2022/02/24 13:53:26;;;;;;;1.77;1.67;;;;;;;;;;5035172;28;20210;-84
2022/02/24 13:55:55;;;;;;;2.13;1.92;;;;;;;;;;5033640;28;20219;-83
2022/02/24 13:58:28;;;;;;;1.98;1.80;;;;;;;;;;5037095;28;20213;-85
2022/02/24 14:00:57;;;;;;;2.65;2.00;;;;;;;;;;5033237;28;20218;-85
2022/02/24 14:03:33;;;;;;;2.47;2.00;;;;;;;;;;5035738;28;20230;-83
2022/02/24 14:06:10;;;;;;;3.85;2.25;;;;;;;;;;5035122;28;20225;-83
2022/02/24 14:08:38;;;;;;;2.15;1.73;;;;;;;;;;5036331;28;20301;-84
2022/02/24 14:11:09;;;;;;;2.97;1.95;;;;;;;;;;5042150;28;20205;-82
2022/02/24 14:13:37;;;;;;;2.08;1.88;;;;;;;;;;5035492;28;20199;-83
2022/02/24 14:16:05;;;;;;;1.38;1.27;;;;;;;;;;5035907;28;20203;-83
2022/02/24 14:18:32;;;;;;;4.00;2.05;;;;;;;;;;5036182;28;20214;-84
2022/02/24 14:21:00;;;;;;;3.65;2.85;;;;;;;;;;5035843;28;20207;-82
2022/02/24 14:23:29;;;;;;;4.55;2.42;;;;;;;;;;5035818;28;20768;-83
2022/02/24 14:25:56;;;;;;;3.33;2.75;;;;;;;;;;5035155;28;20230;-82
2022/02/24 14:28:24;;;;;;;3.88;2.50;;;;;;;;;;5035310;28;20210;-83
2022/02/24 14:30:52;;;;;;;2.92;2.42;;;;;;;;;;5030985;28;20211;-85
2022/02/24 14:33:20;;;;;;;2.55;2.20;;;;;;;;;;5039148;28;20217;-83
2022/02/24 14:35:48;;;;;;;3.80;2.70;;;;;;;;;;5040031;28;20617;-84
2022/02/24 14:38:16;;;;;;;4.95;3.30;;;;;;;;;;5039226;28;20210;-83
2022/02/24 14:40:46;;;;;;;2.72;1.90;;;;;;;;;;5037203;28;20613;-84
2022/02/24 14:43:14;;;;;;;2.58;2.38;;;;;;;;;;5038858;28;20253;-83
2022/02/24 14:45:42;;;;;;;3.75;2.65;;;;;;;;;;5038950;28;20214;-83
2022/02/24 14:48:10;;;;;;;2.63;2.05;;;;;;;;;;5039260;28;20202;-84
2022/02/24 14:50:38;;;;;;;2.17;1.98;;;;;;;;;;5038396;28;20210;-83
2022/02/24 14:53:05;;;;;;;3.13;2.20;;;;;;;;;;5039859;28;20210;-84
2022/02/24 14:55:33;;;;;;;3.03;2.08;;;;;;;;;;5039445;28;20253;-83
2022/02/24 14:58:02;;;;;;;3.60;2.38;;;;;;;;;;5039086;28;20206;-83